createdAt,value
2018-07-01T00:00:59.573Z,4.00
2018-07-01T00:01:59.594Z,8.00
2018-07-01T00:02:59.620Z,4.00
2018-07-01T00:03:59.640Z,4.00
2018-07-01T00:04:59.662Z,4.00
2018-07-01T00:05:59.728Z,4.00
2018-07-01T00:06:59.744Z,4.00
2018-07-01T00:07:59.733Z,4.00
2018-07-01T00:08:59.752Z,4.00
2018-07-01T00:09:59.775Z,8.00
2018-07-01T00:10:59.800Z,8.00
2018-07-01T00:11:59.821Z,8.00
2018-07-01T00:12:59.848Z,4.00
2018-07-01T00:13:59.867Z,4.00
2018-07-01T00:14:59.893Z,4.00
2018-07-01T00:15:59.964Z,4.00
2018-07-01T00:16:59.935Z,4.00
2018-07-01T00:17:59.957Z,8.00
2018-07-01T00:18:59.988Z,4.00
2018-07-01T00:20:00.005Z,8.00
2018-07-01T00:21:00.030Z,8.00
2018-07-01T00:22:00.071Z,8.00
2018-07-01T00:23:00.072Z,4.00
2018-07-01T00:24:00.095Z,8.00
2018-07-01T00:25:00.120Z,4.00
2018-07-01T00:26:00.138Z,8.00
2018-07-01T00:27:00.163Z,8.00
2018-07-01T00:28:00.181Z,8.00
2018-07-01T00:29:00.208Z,4.00
2018-07-01T00:30:00.228Z,8.00
2018-07-01T00:31:00.250Z,8.00
2018-07-01T00:32:00.272Z,8.00
2018-07-01T00:33:00.296Z,8.00
2018-07-01T00:34:00.323Z,4.00
2018-07-01T00:35:00.342Z,4.00
2018-07-01T00:36:00.362Z,4.00
2018-07-01T00:37:00.389Z,4.00
2018-07-01T00:38:00.407Z,4.00
2018-07-01T00:39:00.433Z,8.00
2018-07-01T00:40:00.456Z,4.00
2018-07-01T00:41:00.477Z,4.00
2018-07-01T00:42:00.498Z,8.00
2018-07-01T00:43:00.521Z,4.00
2018-07-01T00:44:00.542Z,4.00
2018-07-01T00:45:00.568Z,4.00
2018-07-01T00:46:00.587Z,4.00
2018-07-01T00:47:00.684Z,4.00
2018-07-01T00:48:00.633Z,8.00
2018-07-01T00:49:00.656Z,8.00
2018-07-01T00:50:00.678Z,4.00
2018-07-01T00:51:00.702Z,4.00
2018-07-01T00:52:00.723Z,8.00
2018-07-01T00:53:00.747Z,4.00
2018-07-01T00:54:00.768Z,8.00
2018-07-01T00:55:00.795Z,4.00
2018-07-01T00:56:00.814Z,4.00
2018-07-01T00:57:00.836Z,8.00
2018-07-01T00:58:00.859Z,4.00
2018-07-01T00:59:00.882Z,8.00
2018-07-01T01:00:00.901Z,8.00
2018-07-01T01:01:00.961Z,8.00
2018-07-01T01:02:00.947Z,8.00
2018-07-01T01:03:00.971Z,8.00
2018-07-01T01:04:00.993Z,8.00
2018-07-01T01:05:01.017Z,4.00
2018-07-01T01:06:01.039Z,8.00
2018-07-01T01:07:01.061Z,4.00
2018-07-01T01:08:01.079Z,8.00
2018-07-01T01:09:01.105Z,4.00
2018-07-01T01:10:01.131Z,4.00
2018-07-01T01:11:01.181Z,4.00
2018-07-01T01:12:01.168Z,4.00
2018-07-01T01:13:01.193Z,8.00
2018-07-01T01:14:01.214Z,4.00
2018-07-01T01:15:01.239Z,4.00
2018-07-01T01:16:01.259Z,8.00
2018-07-01T01:17:01.281Z,4.00
2018-07-01T01:18:01.305Z,4.00
2018-07-01T01:19:01.326Z,4.00
2018-07-01T01:20:01.348Z,4.00
2018-07-01T01:21:01.370Z,4.00
2018-07-01T01:22:01.390Z,4.00
2018-07-01T01:23:01.414Z,8.00
2018-07-01T01:24:01.435Z,4.00
2018-07-01T01:25:01.465Z,8.00
2018-07-01T01:26:01.483Z,4.00
2018-07-01T01:27:01.503Z,4.00
2018-07-01T01:28:01.523Z,4.00
2018-07-01T01:29:01.549Z,4.00
2018-07-01T01:30:01.572Z,4.00
2018-07-01T01:31:01.599Z,4.00
2018-07-01T01:32:01.615Z,4.00
2018-07-01T01:33:01.636Z,4.00
2018-07-01T01:34:01.656Z,4.00
2018-07-01T01:35:01.679Z,4.00
2018-07-01T01:36:01.703Z,4.00
2018-07-01T01:37:01.727Z,4.00
2018-07-01T01:38:01.749Z,4.00
2018-07-01T01:39:01.767Z,4.00
2018-07-01T01:40:01.789Z,4.00
2018-07-01T01:41:01.810Z,4.00
2018-07-01T01:42:01.836Z,4.00
2018-07-01T01:43:01.855Z,4.00
2018-07-01T01:44:01.878Z,4.00
2018-07-01T01:45:01.915Z,4.00
2018-07-01T01:46:01.924Z,4.00
2018-07-01T01:47:01.945Z,4.00
2018-07-01T01:48:01.964Z,4.00
2018-07-01T01:49:01.991Z,4.00
2018-07-01T01:50:02.009Z,4.00
2018-07-01T01:51:02.029Z,4.00
2018-07-01T01:52:02.052Z,4.00
2018-07-01T01:53:02.074Z,4.00
2018-07-01T01:54:02.099Z,4.00
2018-07-01T01:55:02.118Z,4.00
2018-07-01T01:56:02.143Z,4.00
2018-07-01T01:57:02.168Z,4.00
2018-07-01T01:58:02.187Z,4.00
2018-07-01T01:59:02.208Z,4.00
2018-07-01T02:00:02.230Z,4.00
2018-07-01T02:01:02.253Z,4.00
2018-07-01T02:02:02.274Z,4.00
2018-07-01T02:03:02.295Z,4.00
2018-07-01T02:04:02.319Z,4.00
2018-07-01T02:05:02.338Z,4.00
2018-07-01T02:06:02.361Z,4.00
2018-07-01T02:07:02.380Z,4.00
2018-07-01T02:08:02.405Z,4.00
2018-07-01T02:09:02.425Z,4.00
2018-07-01T02:10:02.446Z,4.00
2018-07-01T02:11:02.470Z,4.00
2018-07-01T02:12:02.490Z,4.00
2018-07-01T02:13:02.515Z,4.00
2018-07-01T02:14:02.534Z,4.00
2018-07-01T02:15:02.563Z,4.00
2018-07-01T02:16:02.578Z,4.00
2018-07-01T02:17:02.599Z,4.00
2018-07-01T02:18:02.619Z,4.00
2018-07-01T02:19:02.643Z,4.00
2018-07-01T02:20:02.664Z,4.00
2018-07-01T02:21:02.690Z,8.00
2018-07-01T02:22:02.708Z,8.00
2018-07-01T02:23:02.732Z,8.00
2018-07-01T02:24:02.751Z,8.00
2018-07-01T02:25:02.773Z,8.00
2018-07-01T02:26:02.801Z,8.00
2018-07-01T02:27:02.820Z,4.00
2018-07-01T02:28:02.841Z,4.00
2018-07-01T02:29:02.859Z,4.00
2018-07-01T02:30:02.882Z,4.00
2018-07-01T02:31:02.907Z,8.00
2018-07-01T02:32:02.925Z,8.00
2018-07-01T02:33:02.954Z,8.00
2018-07-01T02:34:02.969Z,4.00
2018-07-01T02:35:02.992Z,8.00
2018-07-01T02:36:03.014Z,8.00
2018-07-01T02:37:03.036Z,8.00
2018-07-01T02:38:03.056Z,8.00
2018-07-01T02:39:03.079Z,12.00
2018-07-01T02:40:03.106Z,8.00
2018-07-01T02:41:03.120Z,12.00
2018-07-01T02:42:03.142Z,12.00
2018-07-01T02:43:03.167Z,12.00
2018-07-01T02:44:03.186Z,12.00
2018-07-01T02:45:03.211Z,12.00
2018-07-01T02:46:03.231Z,12.00
2018-07-01T02:47:03.251Z,16.00
2018-07-01T02:48:03.272Z,12.00
2018-07-01T02:49:03.294Z,12.00
2018-07-01T02:50:03.315Z,16.00
2018-07-01T02:51:03.339Z,16.00
2018-07-01T02:52:03.357Z,20.00
2018-07-01T02:53:03.395Z,20.00
2018-07-01T02:54:03.404Z,24.00
2018-07-01T02:55:03.423Z,24.00
2018-07-01T02:56:03.443Z,28.00
2018-07-01T02:57:03.467Z,32.00
2018-07-01T02:58:03.488Z,36.00
2018-07-01T02:59:03.510Z,40.00
2018-07-01T03:00:03.529Z,44.00
2018-07-01T03:01:03.555Z,48.00
2018-07-01T03:02:03.577Z,52.00
2018-07-01T03:03:03.594Z,56.00
2018-07-01T03:04:03.617Z,64.00
2018-07-01T03:05:03.637Z,64.00
2018-07-01T03:06:03.661Z,76.00
2018-07-01T03:07:03.682Z,80.00
2018-07-01T03:08:03.703Z,88.00
2018-07-01T03:09:03.726Z,92.00
2018-07-01T03:10:03.744Z,96.00
2018-07-01T03:11:03.767Z,108.00
2018-07-01T03:12:03.786Z,116.00
2018-07-01T03:13:03.808Z,120.00
2018-07-01T03:14:03.831Z,132.00
2018-07-01T03:15:03.853Z,140.00
2018-07-01T03:16:03.873Z,148.00
2018-07-01T03:17:03.896Z,160.00
2018-07-01T03:18:03.914Z,172.00
2018-07-01T03:19:03.939Z,180.00
2018-07-01T03:20:03.960Z,192.00
2018-07-01T03:21:03.980Z,200.00
2018-07-01T03:22:04.000Z,212.00
2018-07-01T03:23:04.021Z,224.00
2018-07-01T03:24:04.044Z,236.00
2018-07-01T03:25:04.067Z,252.00
2018-07-01T03:26:04.087Z,264.00
2018-07-01T03:27:04.108Z,272.00
2018-07-01T03:28:04.128Z,288.00
2018-07-01T03:29:04.151Z,300.00
2018-07-01T03:30:04.175Z,316.00
2018-07-01T03:31:04.194Z,328.00
2018-07-01T03:32:04.212Z,344.00
2018-07-01T03:33:04.234Z,356.00
2018-07-01T03:34:04.255Z,372.00
2018-07-01T03:35:04.280Z,384.00
2018-07-01T03:36:04.299Z,396.00
2018-07-01T03:37:04.320Z,408.00
2018-07-01T03:38:04.340Z,424.00
2018-07-01T03:39:04.365Z,436.00
2018-07-01T03:40:04.385Z,452.00
2018-07-01T03:41:04.405Z,464.00
2018-07-01T03:42:04.429Z,480.00
2018-07-01T03:43:04.447Z,492.00
2018-07-01T03:44:04.468Z,504.00
2018-07-01T03:45:04.490Z,516.00
2018-07-01T03:46:04.513Z,532.00
2018-07-01T03:47:04.536Z,544.00
2018-07-01T03:48:04.556Z,560.00
2018-07-01T03:49:04.577Z,568.00
2018-07-01T03:50:04.606Z,584.00
2018-07-01T03:51:04.619Z,600.00
2018-07-01T03:52:04.642Z,608.00
2018-07-01T03:53:04.659Z,624.00
2018-07-01T03:54:04.684Z,636.00
2018-07-01T03:55:04.705Z,648.00
2018-07-01T03:56:04.725Z,660.00
2018-07-01T03:57:04.745Z,672.00
2018-07-01T03:58:04.769Z,688.00
2018-07-01T03:59:04.790Z,700.00
2018-07-01T04:00:04.809Z,708.00
2018-07-01T04:01:04.836Z,724.00
2018-07-01T04:02:04.857Z,736.00
2018-07-01T04:03:04.874Z,748.00
2018-07-01T04:04:04.897Z,760.00
2018-07-01T04:05:04.943Z,772.00
2018-07-01T04:06:04.939Z,784.00
2018-07-01T04:07:04.960Z,796.00
2018-07-01T04:08:04.980Z,804.00
2018-07-01T04:09:05.002Z,816.00
2018-07-01T04:10:05.022Z,828.00
2018-07-01T04:11:05.049Z,840.00
2018-07-01T04:12:05.065Z,848.00
2018-07-01T04:13:05.084Z,864.00
2018-07-01T04:14:05.106Z,876.00
2018-07-01T04:15:05.130Z,884.00
2018-07-01T04:16:05.149Z,896.00
2018-07-01T04:17:05.172Z,912.00
2018-07-01T04:18:05.190Z,920.00
2018-07-01T04:19:05.212Z,932.00
2018-07-01T04:20:05.236Z,944.00
2018-07-01T04:21:05.257Z,952.00
2018-07-01T04:22:05.282Z,964.00
2018-07-01T04:23:05.299Z,976.00
2018-07-01T04:24:05.320Z,988.00
2018-07-01T04:25:05.344Z,996.00
2018-07-01T04:26:05.361Z,1008.00
2018-07-01T04:27:05.383Z,1016.00
2018-07-01T04:28:05.402Z,1028.00
2018-07-01T04:29:05.427Z,1040.00
2018-07-01T04:30:05.448Z,1056.00
2018-07-01T04:31:05.483Z,1088.00
2018-07-01T04:32:05.487Z,1092.00
2018-07-01T04:33:05.509Z,1084.00
2018-07-01T04:34:05.536Z,1096.00
2018-07-01T04:35:05.554Z,1108.00
2018-07-01T04:36:05.573Z,1120.00
2018-07-01T04:37:05.598Z,1128.00
2018-07-01T04:38:05.615Z,1144.00
2018-07-01T04:39:05.637Z,1156.00
2018-07-01T04:40:05.660Z,1172.00
2018-07-01T04:41:05.683Z,1188.00
2018-07-01T04:42:05.701Z,1204.00
2018-07-01T04:43:05.725Z,1228.00
2018-07-01T04:44:05.746Z,1260.00
2018-07-01T04:45:05.765Z,1296.00
2018-07-01T04:46:05.788Z,1336.00
2018-07-01T04:47:05.808Z,1380.00
2018-07-01T04:48:05.832Z,1412.00
2018-07-01T04:49:05.854Z,1440.00
2018-07-01T04:50:05.877Z,1480.00
2018-07-01T04:51:05.896Z,1492.00
2018-07-01T04:52:05.920Z,1508.00
2018-07-01T04:53:05.939Z,1536.00
2018-07-01T04:54:05.961Z,1532.00
2018-07-01T04:55:06.056Z,1540.00
2018-07-01T04:56:06.003Z,1544.00
2018-07-01T04:57:06.023Z,1560.00
2018-07-01T04:58:06.042Z,1568.00
2018-07-01T04:59:06.069Z,1572.00
2018-07-01T05:00:06.088Z,1568.00
2018-07-01T05:01:06.107Z,1580.00
2018-07-01T05:02:06.183Z,1580.00
2018-07-01T05:03:06.151Z,1584.00
2018-07-01T05:04:06.171Z,1588.00
2018-07-01T05:05:06.196Z,1592.00
2018-07-01T05:06:06.218Z,1604.00
2018-07-01T05:07:06.237Z,1604.00
2018-07-01T05:08:06.261Z,1612.00
2018-07-01T05:09:06.286Z,1608.00
2018-07-01T05:10:06.301Z,1616.00
2018-07-01T05:11:06.328Z,1624.00
2018-07-01T05:12:06.344Z,1628.00
2018-07-01T05:13:06.365Z,1636.00
2018-07-01T05:14:06.391Z,1640.00
2018-07-01T05:15:06.413Z,1648.00
2018-07-01T05:16:06.430Z,1652.00
2018-07-01T05:17:06.465Z,1652.00
2018-07-01T05:18:06.475Z,1648.00
2018-07-01T05:19:06.497Z,1652.00
2018-07-01T05:20:06.521Z,1664.00
2018-07-01T05:21:06.539Z,1664.00
2018-07-01T05:22:06.565Z,1664.00
2018-07-01T05:23:06.587Z,1736.00
2018-07-01T05:24:06.605Z,1784.00
2018-07-01T05:25:06.630Z,1820.00
2018-07-01T05:26:06.649Z,1740.00
2018-07-01T05:27:06.674Z,1704.00
2018-07-01T05:28:06.694Z,1692.00
2018-07-01T05:29:06.716Z,1692.00
2018-07-01T05:30:06.735Z,1700.00
2018-07-01T05:31:06.758Z,1708.00
2018-07-01T05:32:06.781Z,1692.00
2018-07-01T05:33:06.801Z,1696.00
2018-07-01T05:34:06.823Z,1696.00
2018-07-01T05:35:06.848Z,1684.00
2018-07-01T05:36:06.869Z,1696.00
2018-07-01T05:37:06.891Z,1696.00
2018-07-01T05:38:06.910Z,1704.00
2018-07-01T05:39:06.935Z,1724.00
2018-07-01T05:40:06.958Z,1704.00
2018-07-01T05:41:06.977Z,1764.00
2018-07-01T05:42:06.999Z,1756.00
2018-07-01T05:43:07.024Z,1804.00
2018-07-01T05:44:07.047Z,2200.00
2018-07-01T05:45:07.065Z,2020.00
2018-07-01T05:46:07.089Z,2264.00
2018-07-01T05:47:07.113Z,3172.00
2018-07-01T05:48:07.134Z,3204.00
2018-07-01T05:49:07.154Z,3208.00
2018-07-01T05:50:07.175Z,3212.00
2018-07-01T05:51:07.201Z,3228.00
2018-07-01T05:52:07.220Z,3252.00
2018-07-01T05:53:07.248Z,3260.00
2018-07-01T05:54:07.267Z,3268.00
2018-07-01T05:55:07.289Z,3288.00
2018-07-01T05:56:07.313Z,3300.00
2018-07-01T05:57:07.342Z,3292.00
2018-07-01T05:58:07.359Z,3296.00
2018-07-01T05:59:07.380Z,3292.00
2018-07-01T06:00:07.403Z,3296.00
2018-07-01T06:01:07.428Z,3312.00
2018-07-01T06:02:07.452Z,3336.00
2018-07-01T06:03:07.476Z,3332.00
2018-07-01T06:04:07.499Z,3364.00
2018-07-01T06:05:07.522Z,3368.00
2018-07-01T06:06:07.544Z,3380.00
2018-07-01T06:07:07.569Z,3376.00
2018-07-01T06:08:07.591Z,3380.00
2018-07-01T06:09:07.619Z,3396.00
2018-07-01T06:10:07.640Z,3420.00
2018-07-01T06:11:07.664Z,3452.00
2018-07-01T06:12:07.693Z,3500.00
2018-07-01T06:13:07.714Z,3528.00
2018-07-01T06:14:07.750Z,3588.00
2018-07-01T06:15:07.763Z,3624.00
2018-07-01T06:16:07.786Z,3692.00
2018-07-01T06:17:07.812Z,3748.00
2018-07-01T06:18:07.838Z,3792.00
2018-07-01T06:19:07.864Z,3836.00
2018-07-01T06:20:07.885Z,3896.00
2018-07-01T06:21:07.912Z,3928.00
2018-07-01T06:22:07.934Z,3992.00
2018-07-01T06:23:07.962Z,4044.00
2018-07-01T06:24:07.985Z,4064.00
2018-07-01T06:25:08.018Z,4096.00
2018-07-01T06:26:08.039Z,4136.00
2018-07-01T06:27:08.063Z,4172.00
2018-07-01T06:28:08.087Z,4240.00
2018-07-01T06:29:08.110Z,4284.00
2018-07-01T06:30:08.142Z,4324.00
2018-07-01T06:31:08.165Z,4360.00
2018-07-01T06:32:08.188Z,4404.00
2018-07-01T06:33:08.219Z,4340.00
2018-07-01T06:34:08.238Z,4380.00
2018-07-01T06:35:08.264Z,4416.00
2018-07-01T06:36:08.292Z,4456.00
2018-07-01T06:37:08.314Z,4484.00
2018-07-01T06:38:08.345Z,4520.00
2018-07-01T06:39:08.369Z,4536.00
2018-07-01T06:40:08.401Z,4568.00
2018-07-01T06:41:08.420Z,4636.00
2018-07-01T06:42:08.445Z,4660.00
2018-07-01T06:43:08.473Z,4688.00
2018-07-01T06:44:08.499Z,4700.00
2018-07-01T06:45:08.522Z,4704.00
2018-07-01T06:46:08.549Z,4760.00
2018-07-01T06:47:08.576Z,4816.00
2018-07-01T06:48:08.602Z,4872.00
2018-07-01T06:49:08.628Z,4904.00
2018-07-01T06:50:08.656Z,4936.00
2018-07-01T06:51:08.683Z,4964.00
2018-07-01T06:52:08.705Z,4992.00
2018-07-01T06:53:08.734Z,4976.00
2018-07-01T06:54:08.762Z,5016.00
2018-07-01T06:55:08.786Z,5052.00
2018-07-01T06:56:08.818Z,5072.00
2018-07-01T06:57:08.843Z,5096.00
2018-07-01T06:58:08.867Z,5112.00
2018-07-01T06:59:08.890Z,5116.00
2018-07-01T07:00:08.917Z,5148.00
2018-07-01T07:01:08.945Z,5160.00
2018-07-01T07:02:08.971Z,5184.00
2018-07-01T07:03:09.002Z,5192.00
2018-07-01T07:04:09.023Z,5228.00
2018-07-01T07:05:09.051Z,5264.00
2018-07-01T07:06:09.117Z,5272.00
2018-07-01T07:07:09.104Z,5288.00
2018-07-01T07:08:09.137Z,5304.00
2018-07-01T07:09:09.157Z,5324.00
2018-07-01T07:10:09.187Z,5320.00
2018-07-01T07:11:09.213Z,5308.00
2018-07-01T07:12:09.240Z,5348.00
2018-07-01T07:13:09.266Z,5344.00
2018-07-01T07:14:09.293Z,5376.00
2018-07-01T07:15:09.321Z,5424.00
2018-07-01T07:16:09.404Z,5412.00
2018-07-01T07:17:09.373Z,5436.00
2018-07-01T07:18:09.400Z,5456.00
2018-07-01T07:19:09.428Z,5460.00
2018-07-01T07:20:09.453Z,5524.00
2018-07-01T07:21:09.480Z,5488.00
2018-07-01T07:22:09.509Z,5468.00
2018-07-01T07:23:09.535Z,5456.00
2018-07-01T07:24:09.565Z,5432.00
2018-07-01T07:25:09.693Z,5392.00
2018-07-01T07:26:09.620Z,5328.00
2018-07-01T07:27:09.644Z,5224.00
2018-07-01T07:28:09.671Z,5096.00
2018-07-01T07:29:09.698Z,4944.00
2018-07-01T07:30:09.729Z,4752.00
2018-07-01T07:31:09.755Z,4536.00
2018-07-01T07:32:09.779Z,4356.00
2018-07-01T07:33:09.806Z,4224.00
2018-07-01T07:34:09.837Z,4144.00
2018-07-01T07:35:09.864Z,4116.00
2018-07-01T07:36:09.890Z,4108.00
2018-07-01T07:37:09.915Z,4116.00
2018-07-01T07:38:09.944Z,4124.00
2018-07-01T07:39:09.969Z,4172.00
2018-07-01T07:40:09.996Z,4160.00
2018-07-01T07:41:10.024Z,4172.00
2018-07-01T07:42:10.052Z,4184.00
2018-07-01T07:43:10.078Z,4208.00
2018-07-01T07:44:10.104Z,4220.00
2018-07-01T07:45:10.157Z,4248.00
2018-07-01T07:46:10.162Z,4244.00
2018-07-01T07:47:10.185Z,4292.00
2018-07-01T07:48:10.216Z,4316.00
2018-07-01T07:49:10.292Z,4344.00
2018-07-01T07:50:10.269Z,4360.00
2018-07-01T07:51:10.295Z,4380.00
2018-07-01T07:52:10.324Z,4416.00
2018-07-01T07:53:10.345Z,4428.00
2018-07-01T07:54:10.374Z,4456.00
2018-07-01T07:55:10.397Z,4488.00
2018-07-01T07:56:10.427Z,4500.00
2018-07-01T07:57:10.453Z,4508.00
2018-07-01T07:58:10.477Z,4520.00
2018-07-01T07:59:10.506Z,4560.00
2018-07-01T08:00:10.531Z,4564.00
2018-07-01T08:01:10.654Z,4576.00
2018-07-01T08:02:10.583Z,4616.00
2018-07-01T08:03:10.610Z,4608.00
2018-07-01T08:04:10.632Z,4632.00
2018-07-01T08:05:10.662Z,4652.00
2018-07-01T08:06:10.688Z,4684.00
2018-07-01T08:07:10.711Z,4752.00
2018-07-01T08:08:10.738Z,4808.00
2018-07-01T08:09:10.762Z,4712.00
2018-07-01T08:10:10.790Z,4736.00
2018-07-01T08:11:10.818Z,4728.00
2018-07-01T08:12:10.843Z,4772.00
2018-07-01T08:13:10.886Z,4776.00
2018-07-01T08:14:10.894Z,4792.00
2018-07-01T08:15:10.918Z,4820.00
2018-07-01T08:16:10.945Z,4828.00
2018-07-01T08:17:10.972Z,4828.00
2018-07-01T08:18:10.994Z,4908.00
2018-07-01T08:19:11.026Z,4888.00
2018-07-01T08:20:11.047Z,4888.00
2018-07-01T08:21:11.076Z,4892.00
2018-07-01T08:22:11.102Z,4904.00
2018-07-01T08:23:11.127Z,4916.00
2018-07-01T08:24:11.149Z,4876.00
2018-07-01T08:25:11.180Z,4940.00
2018-07-01T08:26:11.201Z,4928.00
2018-07-01T08:27:11.227Z,4984.00
2018-07-01T08:28:11.256Z,4960.00
2018-07-01T08:29:11.288Z,4960.00
2018-07-01T08:30:11.308Z,4992.00
2018-07-01T08:31:11.333Z,4984.00
2018-07-01T08:32:11.356Z,4968.00
2018-07-01T08:33:11.384Z,4988.00
2018-07-01T08:34:11.410Z,4988.00
2018-07-01T08:35:11.437Z,4988.00
2018-07-01T08:36:11.462Z,5012.00
2018-07-01T08:37:11.486Z,5008.00
2018-07-01T08:38:11.514Z,5016.00
2018-07-01T08:39:11.541Z,5040.00
2018-07-01T08:40:11.619Z,5016.00
2018-07-01T08:41:11.592Z,5028.00
2018-07-01T08:42:11.616Z,5016.00
2018-07-01T08:43:11.644Z,5024.00
2018-07-01T08:44:11.671Z,5040.00
2018-07-01T08:45:11.693Z,5060.00
2018-07-01T08:46:11.724Z,5048.00
2018-07-01T08:47:11.748Z,5072.00
2018-07-01T08:48:11.771Z,4988.00
2018-07-01T08:49:11.797Z,5040.00
2018-07-01T08:50:11.825Z,5036.00
2018-07-01T08:51:11.851Z,5036.00
2018-07-01T08:52:11.875Z,5084.00
2018-07-01T08:53:11.901Z,5060.00
2018-07-01T08:54:11.929Z,5068.00
2018-07-01T08:55:11.956Z,5072.00
2018-07-01T08:56:11.980Z,5068.00
2018-07-01T08:57:12.008Z,5036.00
2018-07-01T08:58:12.035Z,5076.00
2018-07-01T08:59:12.060Z,5088.00
2018-07-01T09:00:12.082Z,5084.00
2018-07-01T09:01:12.110Z,5064.00
2018-07-01T09:02:12.136Z,5072.00
2018-07-01T09:03:12.161Z,5096.00
2018-07-01T09:04:12.186Z,5084.00
2018-07-01T09:05:12.218Z,5072.00
2018-07-01T09:06:12.239Z,5132.00
2018-07-01T09:07:12.264Z,5096.00
2018-07-01T09:08:12.292Z,5064.00
2018-07-01T09:09:12.320Z,5032.00
2018-07-01T09:10:12.342Z,5052.00
2018-07-01T09:11:12.369Z,5036.00
2018-07-01T09:12:12.397Z,5000.00
2018-07-01T09:13:12.422Z,5056.00
2018-07-01T09:14:12.449Z,5080.00
2018-07-01T09:15:12.475Z,5080.00
2018-07-01T09:16:12.501Z,5076.00
2018-07-01T09:17:12.532Z,5068.00
2018-07-01T09:18:12.553Z,5060.00
2018-07-01T09:19:12.579Z,5048.00
2018-07-01T09:20:12.604Z,4992.00
2018-07-01T09:21:12.632Z,5044.00
2018-07-01T09:22:12.654Z,5044.00
2018-07-01T09:23:12.682Z,5024.00
2018-07-01T09:24:12.708Z,5036.00
2018-07-01T09:25:12.732Z,4988.00
2018-07-01T09:26:12.762Z,5040.00
2018-07-01T09:27:12.787Z,5056.00
2018-07-01T09:28:12.810Z,5040.00
2018-07-01T09:29:12.838Z,5008.00
2018-07-01T09:30:12.864Z,5020.00
2018-07-01T09:31:12.889Z,5024.00
2018-07-01T09:32:12.915Z,5012.00
2018-07-01T09:33:12.940Z,4972.00
2018-07-01T09:34:12.970Z,5008.00
2018-07-01T09:35:12.997Z,5012.00
2018-07-01T09:36:13.021Z,4984.00
2018-07-01T09:37:13.046Z,5052.00
2018-07-01T09:38:13.072Z,5004.00
2018-07-01T09:39:13.096Z,5012.00
2018-07-01T09:40:13.124Z,5000.00
2018-07-01T09:41:13.150Z,5000.00
2018-07-01T09:42:13.177Z,4992.00
2018-07-01T09:43:13.200Z,4972.00
2018-07-01T09:44:13.226Z,4964.00
2018-07-01T09:45:13.254Z,4960.00
2018-07-01T09:46:13.279Z,4944.00
2018-07-01T09:47:13.309Z,4960.00
2018-07-01T09:48:13.329Z,4956.00
2018-07-01T09:49:13.358Z,4924.00
2018-07-01T09:50:13.406Z,4920.00
2018-07-01T09:51:13.411Z,4908.00
2018-07-01T09:52:13.433Z,4936.00
2018-07-01T09:53:13.462Z,4884.00
2018-07-01T09:54:13.490Z,4896.00
2018-07-01T09:55:13.516Z,4920.00
2018-07-01T09:56:13.539Z,4900.00
2018-07-01T09:57:13.566Z,4884.00
2018-07-01T09:58:13.591Z,4876.00
2018-07-01T09:59:13.621Z,4876.00
2018-07-01T10:00:13.644Z,4860.00
2018-07-01T10:01:13.669Z,4836.00
2018-07-01T10:02:13.702Z,4840.00
2018-07-01T10:03:13.724Z,4852.00
2018-07-01T10:04:13.748Z,4844.00
2018-07-01T10:05:13.777Z,4792.00
2018-07-01T10:06:13.803Z,4780.00
2018-07-01T10:07:13.829Z,4768.00
2018-07-01T10:08:13.854Z,4780.00
2018-07-01T10:09:13.879Z,4760.00
2018-07-01T10:10:13.905Z,4756.00
2018-07-01T10:11:13.933Z,4748.00
2018-07-01T10:12:13.958Z,4744.00
2018-07-01T10:13:13.987Z,4772.00
2018-07-01T10:14:14.015Z,4756.00
2018-07-01T10:15:14.038Z,4768.00
2018-07-01T10:16:14.064Z,4752.00
2018-07-01T10:17:14.090Z,4748.00
2018-07-01T10:18:14.117Z,4728.00
2018-07-01T10:19:14.144Z,4720.00
2018-07-01T10:20:14.170Z,4732.00
2018-07-01T10:21:14.196Z,4672.00
2018-07-01T10:22:14.219Z,4688.00
2018-07-01T10:23:14.248Z,4668.00
2018-07-01T10:24:14.275Z,4736.00
2018-07-01T10:25:14.301Z,4632.00
2018-07-01T10:26:14.328Z,4676.00
2018-07-01T10:27:14.355Z,4640.00
2018-07-01T10:28:14.378Z,4628.00
2018-07-01T10:29:14.405Z,4620.00
2018-07-01T10:30:14.432Z,4624.00
2018-07-01T10:31:14.458Z,4656.00
2018-07-01T10:32:14.485Z,4596.00
2018-07-01T10:33:14.507Z,4576.00
2018-07-01T10:34:14.534Z,4580.00
2018-07-01T10:35:14.563Z,4588.00
2018-07-01T10:36:14.588Z,4556.00
2018-07-01T10:37:14.615Z,4536.00
2018-07-01T10:38:14.639Z,4504.00
2018-07-01T10:39:14.670Z,4512.00
2018-07-01T10:40:14.732Z,4524.00
2018-07-01T10:41:14.719Z,4492.00
2018-07-01T10:42:14.745Z,4492.00
2018-07-01T10:43:14.771Z,4492.00
2018-07-01T10:44:14.797Z,4592.00
2018-07-01T10:45:14.826Z,4464.00
2018-07-01T10:46:14.848Z,4456.00
2018-07-01T10:47:14.875Z,4440.00
2018-07-01T10:48:14.901Z,4436.00
2018-07-01T10:49:14.930Z,4404.00
2018-07-01T10:50:14.954Z,4444.00
2018-07-01T10:51:14.993Z,4392.00
2018-07-01T10:52:15.009Z,4404.00
2018-07-01T10:53:15.033Z,4364.00
2018-07-01T10:54:15.062Z,4364.00
2018-07-01T10:55:15.089Z,4356.00
2018-07-01T10:56:15.112Z,4316.00
2018-07-01T10:57:15.140Z,4304.00
2018-07-01T10:58:15.164Z,4340.00
2018-07-01T10:59:15.193Z,4316.00
2018-07-01T11:00:15.219Z,4272.00
2018-07-01T11:01:15.243Z,4260.00
2018-07-01T11:02:15.269Z,4320.00
2018-07-01T11:03:15.295Z,4264.00
2018-07-01T11:04:15.325Z,4292.00
2018-07-01T11:05:15.349Z,4272.00
2018-07-01T11:06:15.497Z,4208.00
2018-07-01T11:07:15.404Z,4212.00
2018-07-01T11:08:15.427Z,4152.00
2018-07-01T11:09:15.456Z,4208.00
2018-07-01T11:10:15.479Z,4152.00
2018-07-01T11:11:15.505Z,4176.00
2018-07-01T11:12:15.531Z,4236.00
2018-07-01T11:13:15.557Z,4204.00
2018-07-01T11:14:15.584Z,4188.00
2018-07-01T11:15:15.609Z,4192.00
2018-07-01T11:16:15.636Z,4184.00
2018-07-01T11:17:15.664Z,4148.00
2018-07-01T11:18:15.693Z,4132.00
2018-07-01T11:19:15.719Z,4116.00
2018-07-01T11:20:15.790Z,4136.00
2018-07-01T11:21:15.770Z,4148.00
2018-07-01T11:22:15.794Z,4060.00
2018-07-01T11:23:15.820Z,4244.00
2018-07-01T11:24:15.848Z,4064.00
2018-07-01T11:25:15.875Z,4088.00
2018-07-01T11:26:15.902Z,4032.00
2018-07-01T11:27:16.001Z,4096.00
2018-07-01T11:28:15.953Z,4076.00
2018-07-01T11:29:15.980Z,4076.00
2018-07-01T11:30:16.004Z,4112.00
2018-07-01T11:31:16.031Z,4092.00
2018-07-01T11:32:16.056Z,4032.00
2018-07-01T11:33:16.086Z,4012.00
2018-07-01T11:34:16.109Z,4016.00
2018-07-01T11:35:16.138Z,4148.00
2018-07-01T11:36:16.164Z,4004.00
2018-07-01T11:37:16.189Z,3984.00
2018-07-01T11:38:16.284Z,4032.00
2018-07-01T11:39:16.243Z,4012.00
2018-07-01T11:40:16.269Z,4008.00
2018-07-01T11:41:16.310Z,4008.00
2018-07-01T11:42:16.321Z,3996.00
2018-07-01T11:43:16.346Z,3988.00
2018-07-01T11:44:16.375Z,3968.00
2018-07-01T11:45:16.402Z,3984.00
2018-07-01T11:46:16.428Z,4016.00
2018-07-01T11:47:16.452Z,4024.00
2018-07-01T11:48:16.479Z,3968.00
2018-07-01T11:49:16.507Z,4056.00
2018-07-01T11:50:16.531Z,3980.00
2018-07-01T11:51:16.561Z,3956.00
2018-07-01T11:52:16.585Z,3992.00
2018-07-01T11:53:16.613Z,3916.00
2018-07-01T11:54:16.639Z,3992.00
2018-07-01T11:55:16.664Z,3960.00
2018-07-01T11:56:16.691Z,3976.00
2018-07-01T11:57:16.716Z,3952.00
2018-07-01T11:58:16.744Z,4096.00
2018-07-01T11:59:16.767Z,3948.00
2018-07-01T12:00:16.793Z,3940.00
2018-07-01T12:01:16.820Z,3940.00
2018-07-01T12:02:16.847Z,3936.00
2018-07-01T12:03:16.876Z,3916.00
2018-07-01T12:04:16.900Z,3940.00
2018-07-01T12:05:17.251Z,3924.00
2018-07-01T12:06:16.954Z,3920.00
2018-07-01T12:07:16.978Z,3900.00
2018-07-01T12:08:17.007Z,3920.00
2018-07-01T12:09:17.034Z,3900.00
2018-07-01T12:10:17.057Z,3888.00
2018-07-01T12:11:17.086Z,3888.00
2018-07-01T12:12:17.116Z,3876.00
2018-07-01T12:13:17.138Z,3876.00
2018-07-01T12:14:17.163Z,3764.00
2018-07-01T12:15:17.189Z,3828.00
2018-07-01T12:16:17.218Z,3844.00
2018-07-01T12:17:17.245Z,3884.00
2018-07-01T12:18:17.268Z,3860.00
2018-07-01T12:19:17.298Z,3852.00
2018-07-01T12:20:17.321Z,3824.00
2018-07-01T12:21:17.347Z,3840.00
2018-07-01T12:22:17.377Z,3808.00
2018-07-01T12:23:17.415Z,3824.00
2018-07-01T12:24:17.433Z,3808.00
2018-07-01T12:25:17.454Z,3808.00